Portada
METAR-TAF:

METAR-TAF

Aeropuertos :

Aeropuerto de Sevilla

Sevilla, España

latitud: 37-25N, longitud: 005-54W, altitud: 34 m

Observación

El informe se hizo hace 32 minutos, a las 08:00 UTC
Viento 8 kt del norte, variando entre norte-noroeste y norte-noreste
Temperatura 17°C
Humedad 52%
Presión 1020 hPa
Visibilidad 10 km o más
sin nubes por debajo de 1500 m y sin presencia de cumulonimbus.

METAR: LEZL 130800Z 36008KT 330V030 CAVOK 17/07 Q1020 NOSIG

Hora: 10:32 (08:32 UTC)

Pronóstico

El informe se hizo hace 6 horas y 32 minutos, a las 02:00 UTC
Pronóstico válido del 13 a las 03 UTC al 14 a las 03 UTC
Viento 9 kt del norte
Visibilidad 10 km o más
sin nubes por debajo de 1500 m y sin presencia de cumulonimbus.

TAF: LEZL 130200Z 1303/1403 35009KT CAVOK TX30/1316Z TN12/1304Z

Observaciones y pronósticos meteorológicos de más de 4000 aeropuertos (mensajes METAR y TAF).

Los puntos amarillos y rojos representan las estaciones disponibles.

Ponga el ratón en el punto deseado para ver el nombre de la estación.

Haga clic para ver las observaciones y los pronósticos meteorológicos.

Para cambiar el mapa : haga clic en los botones verdes con una cruz de color negro para hacer un zoom, en el botón verde con un guión para alejar o en las flechas verdes para mapas adyacentes.


METAR-TAF: